sensor_id;sensor_type;location;lat;lon;timestamp;pressure;altitude;pressure_sealevel;temperature;humidity
22830;BME280;11581;51.250;6.778;2023-04-27T00:01:48;101372.16;;;8.52;49.29
22830;BME280;11581;51.250;6.778;2023-04-27T00:04:15;101522.66;;;9.22;49.18
22830;BME280;11581;51.250;6.778;2023-04-27T00:06:43;101558.97;;;9.56;49.25
22830;BME280;11581;51.250;6.778;2023-04-27T00:09:09;101555.69;;;9.53;49.52
22830;BME280;11581;51.250;6.778;2023-04-27T00:11:36;101555.09;;;9.49;49.64
22830;BME280;11581;51.250;6.778;2023-04-27T00:14:02;101545.16;;;9.29;49.67
22830;BME280;11581;51.250;6.778;2023-04-27T00:16:29;101568.91;;;9.43;49.81
22830;BME280;11581;51.250;6.778;2023-04-27T00:18:55;101563.06;;;9.38;49.45
22830;BME280;11581;51.250;6.778;2023-04-27T00:21:22;101565.25;;;9.33;49.76
22830;BME280;11581;51.250;6.778;2023-04-27T00:23:48;101518.50;;;8.96;49.97
22830;BME280;11581;51.250;6.778;2023-04-27T00:26:14;101545.97;;;9.07;50.29
22830;BME280;11581;51.250;6.778;2023-04-27T00:28:43;101565.47;;;9.19;50.16
22830;BME280;11581;51.250;6.778;2023-04-27T00:31:11;101561.38;;;9.15;50.26
22830;BME280;11581;51.250;6.778;2023-04-27T00:33:37;101493.88;;;8.59;50.17
22830;BME280;11581;51.250;6.778;2023-04-27T00:36:04;101463.00;;;8.35;50.59
22830;BME280;11581;51.250;6.778;2023-04-27T00:38:30;101574.66;;;9.04;51.32
22830;BME280;11581;51.250;6.778;2023-04-27T00:41:04;101583.81;;;9.00;51.54
22830;BME280;11581;51.250;6.778;2023-04-27T00:43:32;101520.25;;;8.62;51.32
22830;BME280;11581;51.250;6.778;2023-04-27T00:45:59;101583.47;;;8.93;51.31
22830;BME280;11581;51.250;6.778;2023-04-27T00:48:25;101567.31;;;8.73;51.40
22830;BME280;11581;51.250;6.778;2023-04-27T00:50:52;101570.75;;;8.86;51.60
22830;BME280;11581;51.250;6.778;2023-04-27T00:53:18;101557.78;;;8.70;52.05
22830;BME280;11581;51.250;6.778;2023-04-27T00:55:47;101540.47;;;8.65;52.02
22830;BME280;11581;51.250;6.778;2023-04-27T00:58:14;101571.44;;;8.77;51.94
22830;BME280;11581;51.250;6.778;2023-04-27T01:00:41;101574.22;;;8.75;52.19
22830;BME280;11581;51.250;6.778;2023-04-27T01:03:08;101540.41;;;8.54;52.31
22830;BME280;11581;51.250;6.778;2023-04-27T01:05:36;101577.22;;;8.71;52.44
22830;BME280;11581;51.250;6.778;2023-04-27T01:08:03;101500.31;;;8.22;52.30
22830;BME280;11581;51.250;6.778;2023-04-27T01:10:29;101435.63;;;7.87;51.94
22830;BME280;11581;51.250;6.778;2023-04-27T01:12:56;101567.78;;;8.67;52.65
22830;BME280;11581;51.250;6.778;2023-04-27T01:15:22;101564.25;;;8.66;52.45
22830;BME280;11581;51.250;6.778;2023-04-27T01:17:56;101567.06;;;8.65;52.90
22830;BME280;11581;51.250;6.778;2023-04-27T01:20:23;101614.06;;;8.64;52.54
22830;BME280;11581;51.250;6.778;2023-04-27T01:22:49;101560.13;;;8.51;52.33
22830;BME280;11581;51.250;6.778;2023-04-27T01:25:15;101564.88;;;8.59;52.54
22830;BME280;11581;51.250;6.778;2023-04-27T01:27:42;101471.25;;;7.85;52.50
22830;BME280;11581;51.250;6.778;2023-04-27T01:30:09;101585.63;;;8.54;52.85
22830;BME280;11581;51.250;6.778;2023-04-27T01:32:37;101479.91;;;7.87;52.62
22830;BME280;11581;51.250;6.778;2023-04-27T01:35:04;101577.38;;;8.46;52.89
22830;BME280;11581;51.250;6.778;2023-04-27T01:37:31;101568.03;;;8.40;52.92
22830;BME280;11581;51.250;6.778;2023-04-27T01:39:57;101580.19;;;8.32;52.72
22830;BME280;11581;51.250;6.778;2023-04-27T01:42:24;101578.50;;;8.31;53.32
22830;BME280;11581;51.250;6.778;2023-04-27T01:44:51;101463.59;;;7.57;53.24
22830;BME280;11581;51.250;6.778;2023-04-27T01:47:17;101587.22;;;8.20;53.56
22830;BME280;11581;51.250;6.778;2023-04-27T01:49:44;101546.31;;;7.87;53.29
22830;BME280;11581;51.250;6.778;2023-04-27T01:52:10;101537.84;;;7.82;53.99
22830;BME280;11581;51.250;6.778;2023-04-27T01:54:37;101577.75;;;7.93;53.75
22830;BME280;11581;51.250;6.778;2023-04-27T01:57:04;101550.00;;;7.61;54.07
22830;BME280;11581;51.250;6.778;2023-04-27T01:59:33;101498.91;;;7.34;54.30
22830;BME280;11581;51.250;6.778;2023-04-27T02:02:00;101552.16;;;7.56;54.24
22830;BME280;11581;51.250;6.778;2023-04-27T02:04:28;101603.28;;;7.83;54.36
22830;BME280;11581;51.250;6.778;2023-04-27T02:06:54;101551.13;;;7.46;54.72
22830;BME280;11581;51.250;6.778;2023-04-27T02:09:21;101607.56;;;7.73;54.74
22830;BME280;11581;51.250;6.778;2023-04-27T02:11:47;101603.44;;;7.69;54.93
22830;BME280;11581;51.250;6.778;2023-04-27T02:14:13;101561.50;;;7.36;54.87
22830;BME280;11581;51.250;6.778;2023-04-27T02:16:40;101551.97;;;7.34;55.06
22830;BME280;11581;51.250;6.778;2023-04-27T02:19:06;101597.28;;;7.56;55.27
22830;BME280;11581;51.250;6.778;2023-04-27T02:21:33;101594.84;;;7.53;55.12
22830;BME280;11581;51.250;6.778;2023-04-27T02:24:00;101601.31;;;7.49;55.36
22830;BME280;11581;51.250;6.778;2023-04-27T02:26:26;101520.66;;;7.01;55.37
22830;BME280;11581;51.250;6.778;2023-04-27T02:28:55;101585.41;;;7.36;55.48
22830;BME280;11581;51.250;6.778;2023-04-27T02:31:22;101601.22;;;7.38;55.86
22830;BME280;11581;51.250;6.778;2023-04-27T02:33:48;101547.63;;;7.08;55.88
22830;BME280;11581;51.250;6.778;2023-04-27T02:36:15;101575.94;;;7.20;55.79
22830;BME280;11581;51.250;6.778;2023-04-27T02:38:41;101597.72;;;7.25;55.86
22830;BME280;11581;51.250;6.778;2023-04-27T02:41:08;101599.63;;;7.23;56.02
22830;BME280;11581;51.250;6.778;2023-04-27T02:43:35;101579.16;;;7.12;56.29
22830;BME280;11581;51.250;6.778;2023-04-27T02:46:04;101599.31;;;7.15;56.40
22830;BME280;11581;51.250;6.778;2023-04-27T02:48:30;101584.56;;;7.11;56.23
22830;BME280;11581;51.250;6.778;2023-04-27T02:50:57;101565.88;;;6.87;56.28
22830;BME280;11581;51.250;6.778;2023-04-27T02:53:23;101553.88;;;6.81;56.74
22830;BME280;11581;51.250;6.778;2023-04-27T02:55:50;101585.28;;;7.00;56.85
22830;BME280;11581;51.250;6.778;2023-04-27T02:58:16;101582.84;;;6.97;57.08
22830;BME280;11581;51.250;6.778;2023-04-27T03:00:44;101574.22;;;6.93;57.05
22830;BME280;11581;51.250;6.778;2023-04-27T03:03:11;101569.13;;;6.90;57.21
22830;BME280;11581;51.250;6.778;2023-04-27T03:05:37;101411.50;;;5.94;57.24
22830;BME280;11581;51.250;6.778;2023-04-27T03:08:04;101568.72;;;6.84;57.15
22830;BME280;11581;51.250;6.778;2023-04-27T03:10:30;101560.22;;;6.79;57.55
22830;BME280;11581;51.250;6.778;2023-04-27T03:12:57;101496.75;;;6.38;57.48
22830;BME280;11581;51.250;6.778;2023-04-27T03:15:24;101563.19;;;6.74;57.45
22830;BME280;11581;51.250;6.778;2023-04-27T03:17:50;101564.13;;;6.73;57.76
22830;BME280;11581;51.250;6.778;2023-04-27T03:20:17;101563.31;;;6.73;57.62
22830;BME280;11581;51.250;6.778;2023-04-27T03:22:44;101565.50;;;6.66;58.04
22830;BME280;11581;51.250;6.778;2023-04-27T03:25:10;101505.75;;;6.23;58.07
22830;BME280;11581;51.250;6.778;2023-04-27T03:27:37;101590.84;;;6.70;58.09
22830;BME280;11581;51.250;6.778;2023-04-27T03:30:04;101543.63;;;6.50;58.07
22830;BME280;11581;51.250;6.778;2023-04-27T03:32:31;101572.28;;;6.70;58.40
22830;BME280;11581;51.250;6.778;2023-04-27T03:34:59;101582.91;;;6.70;58.48
22830;BME280;11581;51.250;6.778;2023-04-27T03:37:27;101577.59;;;6.70;58.19
22830;BME280;11581;51.250;6.778;2023-04-27T03:39:54;101567.31;;;6.66;58.52
22830;BME280;11581;51.250;6.778;2023-04-27T03:42:21;101561.03;;;6.54;58.58
22830;BME280;11581;51.250;6.778;2023-04-27T03:44:48;101577.59;;;6.70;58.54
22830;BME280;11581;51.250;6.778;2023-04-27T03:47:15;101567.41;;;6.64;58.46
22830;BME280;11581;51.250;6.778;2023-04-27T03:49:41;101581.97;;;6.71;58.53
22830;BME280;11581;51.250;6.778;2023-04-27T03:52:08;101552.97;;;6.56;58.38
22830;BME280;11581;51.250;6.778;2023-04-27T03:54:35;101578.47;;;6.71;58.56
22830;BME280;11581;51.250;6.778;2023-04-27T03:57:01;101436.97;;;5.83;58.63
22830;BME280;11581;51.250;6.778;2023-04-27T03:59:28;101573.56;;;6.65;58.58
22830;BME280;11581;51.250;6.778;2023-04-27T04:01:55;101398.94;;;5.57;58.67
22830;BME280;11581;51.250;6.778;2023-04-27T04:04:22;101597.88;;;6.71;58.59
22830;BME280;11581;51.250;6.778;2023-04-27T04:06:49;101519.50;;;6.28;58.94
22830;BME280;11581;51.250;6.778;2023-04-27T04:09:16;101593.50;;;6.70;58.92
22830;BME280;11581;51.250;6.778;2023-04-27T04:11:42;101589.56;;;6.63;58.99
22830;BME280;11581;51.250;6.778;2023-04-27T04:14:12;101588.09;;;6.59;58.83
22830;BME280;11581;51.250;6.778;2023-04-27T04:16:39;101572.03;;;6.48;59.18
22830;BME280;11581;51.250;6.778;2023-04-27T04:19:05;101600.53;;;6.71;59.14
22830;BME280;11581;51.250;6.778;2023-04-27T04:21:32;101587.47;;;6.68;59.57
22830;BME280;11581;51.250;6.778;2023-04-27T04:23:58;101518.78;;;6.26;59.41
22830;BME280;11581;51.250;6.778;2023-04-27T04:26:25;101602.00;;;6.75;59.31
22830;BME280;11581;51.250;6.778;2023-04-27T04:28:51;101605.41;;;6.77;59.20
22830;BME280;11581;51.250;6.778;2023-04-27T04:31:18;101600.84;;;6.79;59.43
22830;BME280;11581;51.250;6.778;2023-04-27T04:33:45;101603.28;;;6.82;59.79
22830;BME280;11581;51.250;6.778;2023-04-27T04:36:14;101596.09;;;6.84;59.61
22830;BME280;11581;51.250;6.778;2023-04-27T04:38:40;101535.78;;;6.49;59.80
22830;BME280;11581;51.250;6.778;2023-04-27T04:41:07;101607.78;;;6.95;59.91
22830;BME280;11581;51.250;6.778;2023-04-27T04:43:35;101607.16;;;7.04;60.65
22830;BME280;11581;51.250;6.778;2023-04-27T04:46:04;101597.63;;;7.14;60.91
22830;BME280;11581;51.250;6.778;2023-04-27T04:48:32;101546.56;;;6.98;61.27
22830;BME280;11581;51.250;6.778;2023-04-27T04:50:58;101612.25;;;7.57;61.23
22830;BME280;11581;51.250;6.778;2023-04-27T04:53:25;101616.66;;;7.81;61.51
22830;BME280;11581;51.250;6.778;2023-04-27T04:55:54;101616.28;;;8.11;61.46
22830;BME280;11581;51.250;6.778;2023-04-27T04:58:20;101589.34;;;8.28;61.44
22830;BME280;11581;51.250;6.778;2023-04-27T05:00:47;101624.63;;;8.77;61.14
22830;BME280;11581;51.250;6.778;2023-04-27T05:03:13;101618.22;;;9.14;60.82
22830;BME280;11581;51.250;6.778;2023-04-27T05:05:39;101615.97;;;9.54;60.31
22830;BME280;11581;51.250;6.778;2023-04-27T05:08:06;101612.84;;;9.93;59.66
22830;BME280;11581;51.250;6.778;2023-04-27T05:10:32;101614.00;;;10.33;59.10
22830;BME280;11581;51.250;6.778;2023-04-27T05:12:59;101602.63;;;10.62;58.37
22830;BME280;11581;51.250;6.778;2023-04-27T05:15:25;101614.28;;;11.13;58.05
22830;BME280;11581;51.250;6.778;2023-04-27T05:17:52;101566.84;;;11.26;57.11
22830;BME280;11581;51.250;6.778;2023-04-27T05:20:19;101622.63;;;12.01;56.19
22830;BME280;11581;51.250;6.778;2023-04-27T05:22:45;101626.09;;;12.41;55.62
22830;BME280;11581;51.250;6.778;2023-04-27T05:25:12;101630.22;;;12.83;54.87
22830;BME280;11581;51.250;6.778;2023-04-27T05:27:38;101621.91;;;13.24;54.28
22830;BME280;11581;51.250;6.778;2023-04-27T05:30:05;101625.03;;;13.66;53.04
22830;BME280;11581;51.250;6.778;2023-04-27T05:32:32;101621.03;;;14.06;52.82
22830;BME280;11581;51.250;6.778;2023-04-27T05:35:00;101628.44;;;14.49;51.78
22830;BME280;11581;51.250;6.778;2023-04-27T05:37:27;101624.16;;;14.91;50.61
22830;BME280;11581;51.250;6.778;2023-04-27T05:39:54;101494.25;;;14.49;49.98
22830;BME280;11581;51.250;6.778;2023-04-27T05:42:20;101631.34;;;15.69;49.58
22830;BME280;11581;51.250;6.778;2023-04-27T05:44:47;101625.13;;;16.10;48.67
22830;BME280;11581;51.250;6.778;2023-04-27T05:47:13;101629.69;;;16.51;48.31
22830;BME280;11581;51.250;6.778;2023-04-27T05:49:40;101549.56;;;16.45;47.61
22830;BME280;11581;51.250;6.778;2023-04-27T05:52:06;101636.81;;;17.40;46.74
22830;BME280;11581;51.250;6.778;2023-04-27T05:54:33;101629.81;;;17.86;46.40
22830;BME280;11581;51.250;6.778;2023-04-27T05:57:00;101628.59;;;18.35;46.15
22830;BME280;11581;51.250;6.778;2023-04-27T05:59:26;101574.41;;;18.44;45.03
22830;BME280;11581;51.250;6.778;2023-04-27T06:01:53;101516.19;;;18.64;44.29
22830;BME280;11581;51.250;6.778;2023-04-27T06:04:20;101566.81;;;19.44;43.62
22830;BME280;11581;51.250;6.778;2023-04-27T06:06:46;101638.59;;;20.28;42.08
22830;BME280;11581;51.250;6.778;2023-04-27T06:09:13;101643.06;;;20.71;41.31
22830;BME280;11581;51.250;6.778;2023-04-27T06:11:39;101645.19;;;21.11;40.22
22830;BME280;11581;51.250;6.778;2023-04-27T06:14:06;101631.72;;;21.45;39.38
22830;BME280;11581;51.250;6.778;2023-04-27T06:16:32;101613.47;;;21.60;37.93
22830;BME280;11581;51.250;6.778;2023-04-27T06:18:59;101606.06;;;21.75;36.87
22830;BME280;11581;51.250;6.778;2023-04-27T06:21:25;101482.03;;;21.07;36.31
22830;BME280;11581;51.250;6.778;2023-04-27T06:23:52;101636.72;;;22.03;35.70
22830;BME280;11581;51.250;6.778;2023-04-27T06:26:18;101637.13;;;22.00;35.38
22830;BME280;11581;51.250;6.778;2023-04-27T06:28:45;101628.75;;;21.95;35.27
22830;BME280;11581;51.250;6.778;2023-04-27T06:31:11;101586.53;;;21.65;35.04
22830;BME280;11581;51.250;6.778;2023-04-27T06:33:38;101629.09;;;21.85;35.41
22830;BME280;11581;51.250;6.778;2023-04-27T06:36:05;101591.34;;;21.63;35.43
22830;BME280;11581;51.250;6.778;2023-04-27T06:38:32;101639.84;;;22.00;35.67
22830;BME280;11581;51.250;6.778;2023-04-27T06:40:58;101635.53;;;22.12;34.82
22830;BME280;11581;51.250;6.778;2023-04-27T06:43:25;101610.66;;;22.15;34.85
22830;BME280;11581;51.250;6.778;2023-04-27T06:45:51;101593.72;;;22.07;35.10
22830;BME280;11581;51.250;6.778;2023-04-27T06:48:18;101636.09;;;22.48;35.03
22830;BME280;11581;51.250;6.778;2023-04-27T06:50:45;101624.88;;;22.58;35.17
22830;BME280;11581;51.250;6.778;2023-04-27T06:53:11;101642.09;;;22.97;35.38
22830;BME280;11581;51.250;6.778;2023-04-27T06:55:38;101621.03;;;23.25;35.26
22830;BME280;11581;51.250;6.778;2023-04-27T06:58:05;101634.19;;;23.74;34.86
22830;BME280;11581;51.250;6.778;2023-04-27T07:00:31;101626.56;;;24.15;34.57
22830;BME280;11581;51.250;6.778;2023-04-27T07:02:58;101635.16;;;24.63;34.14
22830;BME280;11581;51.250;6.778;2023-04-27T07:05:24;101619.00;;;24.99;33.79
22830;BME280;11581;51.250;6.778;2023-04-27T07:07:51;101617.38;;;25.47;33.64
22830;BME280;11581;51.250;6.778;2023-04-27T07:10:18;101598.91;;;25.85;32.76
22830;BME280;11581;51.250;6.778;2023-04-27T07:12:45;101567.97;;;26.09;32.13
22830;BME280;11581;51.250;6.778;2023-04-27T07:15:11;101624.38;;;26.99;31.48
22830;BME280;11581;51.250;6.778;2023-04-27T07:17:38;101621.88;;;27.38;30.49
22830;BME280;11581;51.250;6.778;2023-04-27T07:20:05;101533.72;;;27.18;29.77
22830;BME280;11581;51.250;6.778;2023-04-27T07:22:32;101578.03;;;27.73;29.40
22830;BME280;11581;51.250;6.778;2023-04-27T07:24:58;101597.38;;;28.17;29.06
22830;BME280;11581;51.250;6.778;2023-04-27T07:27:25;101625.94;;;28.56;28.40
22830;BME280;11581;51.250;6.778;2023-04-27T07:29:52;101571.09;;;28.45;28.05
22830;BME280;11581;51.250;6.778;2023-04-27T07:32:19;101556.00;;;28.59;27.54
22830;BME280;11581;51.250;6.778;2023-04-27T07:34:45;101622.34;;;29.12;27.42
22830;BME280;11581;51.250;6.778;2023-04-27T07:37:12;101631.75;;;29.32;27.55
22830;BME280;11581;51.250;6.778;2023-04-27T07:39:40;101625.25;;;29.55;27.42
22830;BME280;11581;51.250;6.778;2023-04-27T07:42:06;101556.88;;;29.42;27.00
22830;BME280;11581;51.250;6.778;2023-04-27T07:44:33;101629.41;;;30.12;26.16
22830;BME280;11581;51.250;6.778;2023-04-27T07:46:59;101630.28;;;30.34;26.22
22830;BME280;11581;51.250;6.778;2023-04-27T07:49:29;101631.56;;;30.53;25.29
22830;BME280;11581;51.250;6.778;2023-04-27T07:51:55;101630.16;;;30.72;25.47
22830;BME280;11581;51.250;6.778;2023-04-27T07:54:22;101611.66;;;30.68;25.01
22830;BME280;11581;51.250;6.778;2023-04-27T07:56:48;101579.28;;;30.75;25.09
22830;BME280;11581;51.250;6.778;2023-04-27T07:59:15;101560.38;;;30.83;24.90
22830;BME280;11581;51.250;6.778;2023-04-27T08:01:42;101607.63;;;31.28;25.00
22830;BME280;11581;51.250;6.778;2023-04-27T08:04:08;101604.44;;;31.46;24.26
22830;BME280;11581;51.250;6.778;2023-04-27T08:06:36;101618.31;;;31.61;23.94
22830;BME280;11581;51.250;6.778;2023-04-27T08:09:03;101592.91;;;31.54;22.90
22830;BME280;11581;51.250;6.778;2023-04-27T08:11:30;101621.16;;;31.71;22.62
22830;BME280;11581;51.250;6.778;2023-04-27T08:13:56;101594.50;;;31.45;22.04
22830;BME280;11581;51.250;6.778;2023-04-27T08:16:23;101610.91;;;31.30;21.62
22830;BME280;11581;51.250;6.778;2023-04-27T08:18:49;101605.97;;;31.01;22.39
22830;BME280;11581;51.250;6.778;2023-04-27T08:21:16;101580.22;;;30.64;22.40
22830;BME280;11581;51.250;6.778;2023-04-27T08:23:42;101603.72;;;30.71;23.11
22830;BME280;11581;51.250;6.778;2023-04-27T08:26:13;101612.44;;;30.63;20.37
22830;BME280;11581;51.250;6.778;2023-04-27T08:28:40;101596.28;;;30.45;22.68
22830;BME280;11581;51.250;6.778;2023-04-27T08:31:07;101597.41;;;30.49;22.76
22830;BME280;11581;51.250;6.778;2023-04-27T08:33:33;101601.69;;;30.40;22.62
22830;BME280;11581;51.250;6.778;2023-04-27T08:36:00;101601.59;;;30.30;22.10
22830;BME280;11581;51.250;6.778;2023-04-27T08:38:26;101593.66;;;30.12;22.25
22830;BME280;11581;51.250;6.778;2023-04-27T08:40:53;101590.69;;;29.97;21.88
22830;BME280;11581;51.250;6.778;2023-04-27T08:43:19;101601.34;;;29.72;21.60
22830;BME280;11581;51.250;6.778;2023-04-27T08:45:47;101607.69;;;29.39;20.95
22830;BME280;11581;51.250;6.778;2023-04-27T08:48:14;101547.31;;;28.78;21.55
22830;BME280;11581;51.250;6.778;2023-04-27T08:50:43;101469.09;;;27.91;21.61
22830;BME280;11581;51.250;6.778;2023-04-27T08:53:20;101601.13;;;28.40;20.98
22830;BME280;11581;51.250;6.778;2023-04-27T08:55:48;101556.69;;;27.98;22.90
22830;BME280;11581;51.250;6.778;2023-04-27T08:58:15;101597.78;;;28.09;22.58
22830;BME280;11581;51.250;6.778;2023-04-27T09:00:42;101597.13;;;27.91;22.36
22830;BME280;11581;51.250;6.778;2023-04-27T09:03:25;101535.66;;;27.29;21.24
22830;BME280;11581;51.250;6.778;2023-04-27T09:05:52;101593.06;;;27.36;22.76
22830;BME280;11581;51.250;6.778;2023-04-27T09:08:19;101593.34;;;27.16;22.55
22830;BME280;11581;51.250;6.778;2023-04-27T09:10:47;101561.03;;;26.84;22.74
22830;BME280;11581;51.250;6.778;2023-04-27T09:13:14;101593.31;;;26.93;23.45
22830;BME280;11581;51.250;6.778;2023-04-27T09:15:42;101524.41;;;26.55;23.00
22830;BME280;11581;51.250;6.778;2023-04-27T09:18:22;101593.94;;;26.95;21.48
22830;BME280;11581;51.250;6.778;2023-04-27T09:20:50;101595.34;;;26.98;23.07
22830;BME280;11581;51.250;6.778;2023-04-27T09:23:27;101571.41;;;26.93;21.89
22830;BME280;11581;51.250;6.778;2023-04-27T09:26:00;101578.47;;;27.12;21.14
22830;BME280;11581;51.250;6.778;2023-04-27T09:28:28;101585.28;;;27.21;22.42
22830;BME280;11581;51.250;6.778;2023-04-27T09:30:57;101579.81;;;27.21;21.91
22830;BME280;11581;51.250;6.778;2023-04-27T09:33:28;101543.56;;;26.96;22.27
22830;BME280;11581;51.250;6.778;2023-04-27T09:35:56;101587.25;;;27.14;22.00
22830;BME280;11581;51.250;6.778;2023-04-27T09:38:23;101575.84;;;27.06;22.36
22830;BME280;11581;51.250;6.778;2023-04-27T09:40:51;101513.94;;;26.52;22.69
22830;BME280;11581;51.250;6.778;2023-04-27T09:43:18;101591.66;;;26.92;22.76
22830;BME280;11581;51.250;6.778;2023-04-27T09:45:44;101570.22;;;26.89;22.74
22830;BME280;11581;51.250;6.778;2023-04-27T09:48:11;101562.94;;;26.72;22.26
22830;BME280;11581;51.250;6.778;2023-04-27T09:50:40;101544.16;;;26.57;22.46
22830;BME280;11581;51.250;6.778;2023-04-27T09:53:10;101580.06;;;26.79;22.14
22830;BME280;11581;51.250;6.778;2023-04-27T10:04:01;101558.50;;;27.69;22.03
22830;BME280;11581;51.250;6.778;2023-04-27T10:09:21;101545.50;;;28.56;21.48
22830;BME280;11581;51.250;6.778;2023-04-27T10:11:50;101482.13;;;28.41;22.81
22830;BME280;11581;51.250;6.778;2023-04-27T10:14:18;101551.34;;;29.04;20.72
22830;BME280;11581;51.250;6.778;2023-04-27T10:16:54;101543.00;;;28.99;19.57
22830;BME280;11581;51.250;6.778;2023-04-27T10:19:22;101553.03;;;28.77;20.27
22830;BME280;11581;51.250;6.778;2023-04-27T10:21:57;101548.69;;;28.36;19.97
22830;BME280;11581;51.250;6.778;2023-04-27T10:24:40;101533.34;;;27.95;20.81
22830;BME280;11581;51.250;6.778;2023-04-27T10:27:15;101474.56;;;27.40;20.67
22830;BME280;11581;51.250;6.778;2023-04-27T10:29:45;101520.88;;;27.53;21.81
22830;BME280;11581;51.250;6.778;2023-04-27T10:32:22;101514.91;;;27.33;20.73
22830;BME280;11581;51.250;6.778;2023-04-27T10:34:50;101527.16;;;27.19;22.02
22830;BME280;11581;51.250;6.778;2023-04-27T10:37:18;101452.38;;;26.61;22.38
22830;BME280;11581;51.250;6.778;2023-04-27T10:39:48;101498.81;;;26.79;22.19
22830;BME280;11581;51.250;6.778;2023-04-27T10:42:25;101477.31;;;26.53;21.56
22830;BME280;11581;51.250;6.778;2023-04-27T10:44:55;101483.53;;;26.60;22.17
22830;BME280;11581;51.250;6.778;2023-04-27T10:47:22;101478.84;;;26.49;22.93
22830;BME280;11581;51.250;6.778;2023-04-27T10:49:52;101492.78;;;26.59;21.61
22830;BME280;11581;51.250;6.778;2023-04-27T10:52:19;101518.78;;;26.68;22.42
22830;BME280;11581;51.250;6.778;2023-04-27T10:54:46;101507.66;;;26.52;22.31
22830;BME280;11581;51.250;6.778;2023-04-27T10:57:12;101521.09;;;26.53;22.69
22830;BME280;11581;51.250;6.778;2023-04-27T10:59:53;101509.31;;;26.53;22.52
22830;BME280;11581;51.250;6.778;2023-04-27T11:02:27;101447.84;;;26.26;22.02
22830;BME280;11581;51.250;6.778;2023-04-27T11:04:54;101511.41;;;26.80;23.73
22830;BME280;11581;51.250;6.778;2023-04-27T11:07:26;101509.78;;;27.02;23.02
22830;BME280;11581;51.250;6.778;2023-04-27T11:09:54;101515.28;;;27.25;23.11
22830;BME280;11581;51.250;6.778;2023-04-27T11:12:20;101516.22;;;27.42;23.31
22830;BME280;11581;51.250;6.778;2023-04-27T11:14:48;101507.53;;;27.57;23.13
22830;BME280;11581;51.250;6.778;2023-04-27T11:17:14;101494.28;;;27.65;22.79
22830;BME280;11581;51.250;6.778;2023-04-27T11:19:47;101517.25;;;27.76;21.01
22830;BME280;11581;51.250;6.778;2023-04-27T11:22:14;101503.44;;;27.82;22.64
22830;BME280;11581;51.250;6.778;2023-04-27T11:24:47;101506.75;;;27.84;21.62
22830;BME280;11581;51.250;6.778;2023-04-27T11:27:14;101460.81;;;27.63;22.42
22830;BME280;11581;51.250;6.778;2023-04-27T11:29:41;101493.03;;;27.84;22.53
22830;BME280;11581;51.250;6.778;2023-04-27T11:32:20;101495.94;;;27.89;20.85
22830;BME280;11581;51.250;6.778;2023-04-27T11:34:51;101495.94;;;27.89;20.72
22830;BME280;11581;51.250;6.778;2023-04-27T11:37:25;101484.25;;;27.82;20.97
22830;BME280;11581;51.250;6.778;2023-04-27T11:39:58;101501.75;;;27.93;21.02
22830;BME280;11581;51.250;6.778;2023-04-27T11:42:27;101470.28;;;27.95;22.16
22830;BME280;11581;51.250;6.778;2023-04-27T11:45:00;101481.22;;;28.24;22.88
22830;BME280;11581;51.250;6.778;2023-04-27T11:47:29;101480.41;;;28.51;22.81
22830;BME280;11581;51.250;6.778;2023-04-27T11:50:01;101451.31;;;28.67;20.71
22830;BME280;11581;51.250;6.778;2023-04-27T11:52:33;101429.13;;;28.68;21.94
22830;BME280;11581;51.250;6.778;2023-04-27T11:55:01;101394.25;;;28.69;21.62
22830;BME280;11581;51.250;6.778;2023-04-27T11:57:29;101466.06;;;29.10;20.45
22830;BME280;11581;51.250;6.778;2023-04-27T11:59:58;101466.03;;;28.94;20.38
22830;BME280;11581;51.250;6.778;2023-04-27T12:02:29;101446.97;;;28.54;19.43
22830;BME280;11581;51.250;6.778;2023-04-27T12:04:58;101441.25;;;28.11;21.15
22830;BME280;11581;51.250;6.778;2023-04-27T12:07:24;101458.06;;;28.15;21.50
22830;BME280;11581;51.250;6.778;2023-04-27T12:09:51;101457.94;;;28.09;21.73
22830;BME280;11581;51.250;6.778;2023-04-27T12:12:17;101451.78;;;28.02;22.25
22830;BME280;11581;51.250;6.778;2023-04-27T12:14:47;101415.72;;;27.82;21.87
22830;BME280;11581;51.250;6.778;2023-04-27T12:17:13;101398.41;;;27.93;22.84
22830;BME280;11581;51.250;6.778;2023-04-27T12:19:40;101406.03;;;28.20;22.69
22830;BME280;11581;51.250;6.778;2023-04-27T12:22:06;101389.41;;;28.43;22.67
22830;BME280;11581;51.250;6.778;2023-04-27T12:24:33;101402.47;;;28.85;22.11
22830;BME280;11581;51.250;6.778;2023-04-27T12:27:00;101433.03;;;29.27;21.09
22830;BME280;11581;51.250;6.778;2023-04-27T12:29:27;101400.94;;;29.11;20.74
22830;BME280;11581;51.250;6.778;2023-04-27T12:31:54;101390.63;;;29.01;20.88
22830;BME280;11581;51.250;6.778;2023-04-27T12:34:20;101375.03;;;28.85;20.56
22830;BME280;11581;51.250;6.778;2023-04-27T12:36:47;101416.91;;;29.14;20.86
22830;BME280;11581;51.250;6.778;2023-04-27T12:39:20;101427.91;;;29.14;21.01
22830;BME280;11581;51.250;6.778;2023-04-27T12:41:48;101420.31;;;29.21;21.30
22830;BME280;11581;51.250;6.778;2023-04-27T12:44:16;101418.50;;;29.26;21.27
22830;BME280;11581;51.250;6.778;2023-04-27T12:46:44;101432.66;;;29.40;21.11
22830;BME280;11581;51.250;6.778;2023-04-27T12:49:12;101386.94;;;29.29;21.06
22830;BME280;11581;51.250;6.778;2023-04-27T12:51:39;101412.50;;;29.51;20.86
22830;BME280;11581;51.250;6.778;2023-04-27T12:54:08;101416.31;;;29.50;19.80
22830;BME280;11581;51.250;6.778;2023-04-27T12:56:37;101417.84;;;29.41;20.22
22830;BME280;11581;51.250;6.778;2023-04-27T12:59:04;101417.13;;;29.29;20.01
22830;BME280;11581;51.250;6.778;2023-04-27T13:01:31;101407.03;;;29.13;19.48
22830;BME280;11581;51.250;6.778;2023-04-27T13:03:59;101409.38;;;28.88;19.41
22830;BME280;11581;51.250;6.778;2023-04-27T13:06:26;101373.22;;;28.25;19.64
22830;BME280;11581;51.250;6.778;2023-04-27T13:08:53;101394.28;;;28.07;19.85